Time;durP1;ratioP1;P1;durP2;ratioP2;P2;SDS_P1;SDS_P2;PMS_P1;PMS_P2;Temp;Humidity;BMP_temperature;BMP_pressure;BME280_temperature;BME280_humidity;BME280_pressure;Samples;Min_cycle;Max_cycle;Signal;HPM_P1;HPM_P2
2023/01/14 00:00:14;;;;;;;4.73;1.80;;;8.40;99.90;;;;;;5055294;28;20470;-70
2023/01/14 00:02:41;;;;;;;6.83;2.23;;;8.40;99.90;;;;;;5055850;28;20455;-69
2023/01/14 00:05:09;;;;;;;7.90;1.90;;;8.40;99.90;;;;;;5055256;28;21015;-71
2023/01/14 00:07:37;;;;;;;4.40;1.53;;;8.40;99.90;;;;;;5055345;28;20932;-71
2023/01/14 00:10:04;;;;;;;5.60;1.93;;;8.40;99.90;;;;;;5055603;28;20455;-69
2023/01/14 00:12:31;;;;;;;5.53;1.87;;;8.40;99.90;;;;;;5055570;28;20465;-70
2023/01/14 00:14:58;;;;;;;4.50;1.63;;;8.30;99.90;;;;;;5055504;28;20482;-70
2023/01/14 00:17:25;;;;;;;10.10;2.07;;;8.30;99.90;;;;;;5055500;28;20465;-69
2023/01/14 00:19:52;;;;;;;3.57;1.80;;;8.40;99.90;;;;;;5055269;28;20566;-70
2023/01/14 00:22:19;;;;;;;5.20;2.77;;;8.40;99.90;;;;;;5054968;28;20493;-69
2023/01/14 00:24:48;;;;;;;3.70;1.80;;;8.40;99.90;;;;;;5055216;28;20539;-69
2023/01/14 00:27:16;;;;;;;3.70;1.60;;;8.40;99.90;;;;;;5054744;28;20456;-70
2023/01/14 00:29:43;;;;;;;2.80;1.67;;;8.50;99.90;;;;;;5055885;28;20454;-70
2023/01/14 00:32:10;;;;;;;3.33;2.03;;;8.50;99.90;;;;;;5055070;28;20455;-70
2023/01/14 00:34:37;;;;;;;7.83;2.10;;;8.50;99.90;;;;;;5054989;28;20799;-70
2023/01/14 00:37:04;;;;;;;3.77;1.87;;;8.50;99.90;;;;;;5054904;28;20463;-69
2023/01/14 00:39:31;;;;;;;8.40;2.50;;;8.50;99.90;;;;;;5055074;28;20545;-69
2023/01/14 00:41:59;;;;;;;4.07;1.90;;;8.50;99.90;;;;;;5054926;28;20791;-70
2023/01/14 00:44:26;;;;;;;5.20;1.80;;;8.50;99.90;;;;;;5054629;28;20451;-70
2023/01/14 00:46:53;;;;;;;4.40;1.53;;;8.50;99.90;;;;;;5055564;28;20454;-70
2023/01/14 00:49:22;;;;;;;4.10;1.77;;;8.50;99.90;;;;;;5054343;28;20455;-70
2023/01/14 00:51:49;;;;;;;6.20;2.30;;;8.50;99.90;;;;;;5054528;28;20463;-69
2023/01/14 00:54:16;;;;;;;3.70;2.30;;;8.50;99.90;;;;;;5054595;28;20479;-70
2023/01/14 00:56:43;;;;;;;4.47;1.80;;;8.50;99.90;;;;;;5054568;28;20538;-70
2023/01/14 00:59:17;;;;;;;3.53;2.13;;;8.40;99.90;;;;;;5055039;28;20919;-70
2023/01/14 01:01:44;;;;;;;5.93;1.50;;;8.40;99.90;;;;;;5054470;28;20451;-70
2023/01/14 01:04:11;;;;;;;2.97;1.90;;;8.40;99.90;;;;;;5054760;28;20462;-71
2023/01/14 01:06:38;;;;;;;3.33;1.63;;;8.40;99.90;;;;;;5055294;28;20455;-70
2023/01/14 01:09:05;;;;;;;1.97;1.77;;;8.40;99.90;;;;;;5055350;28;20554;-69
2023/01/14 01:11:32;;;;;;;3.97;1.50;;;8.40;99.90;;;;;;5054636;28;20451;-70
2023/01/14 01:13:59;;;;;;;3.47;2.17;;;8.30;99.90;;;;;;5054919;28;20509;-70
2023/01/14 01:16:28;;;;;;;8.33;1.80;;;8.40;99.90;;;;;;5054693;28;20546;-71
2023/01/14 01:18:56;;;;;;;3.80;2.57;;;8.30;99.90;;;;;;5054385;28;20536;-69
2023/01/14 01:21:25;;;;;;;4.67;1.90;;;8.30;99.90;;;;;;5054202;28;20455;-70
2023/01/14 01:23:52;;;;;;;3.87;1.50;;;8.30;99.90;;;;;;5054122;28;20573;-69
2023/01/14 01:26:21;;;;;;;5.00;2.00;;;8.40;99.90;;;;;;5054394;28;20455;-70
2023/01/14 01:28:49;;;;;;;3.20;1.80;;;8.40;99.90;;;;;;5054200;28;20451;-69
2023/01/14 01:31:17;;;;;;;4.00;1.80;;;8.40;99.90;;;;;;5054335;28;20455;-70
2023/01/14 01:33:45;;;;;;;6.60;1.93;;;8.40;99.90;;;;;;5054356;28;20548;-70
2023/01/14 01:36:14;;;;;;;2.87;1.40;;;8.30;99.90;;;;;;5054296;28;20542;-70
2023/01/14 01:38:41;;;;;;;5.73;2.00;;;8.40;99.90;;;;;;5054124;28;20461;-69
2023/01/14 01:41:09;;;;;;;6.33;1.90;;;8.40;99.90;;;;;;5054080;28;20451;-69
2023/01/14 01:43:56;;;;;;;7.30;2.10;;;8.40;99.90;;;;;;5054157;28;20884;-69
2023/01/14 01:46:23;;;;;;;3.07;1.40;;;8.40;99.90;;;;;;5053898;28;20888;-69
2023/01/14 01:48:52;;;;;;;4.83;2.00;;;8.40;99.90;;;;;;5053853;28;20895;-69
2023/01/14 01:51:22;;;;;;;4.10;1.90;;;8.40;99.90;;;;;;5054048;28;20463;-69
2023/01/14 01:53:52;;;;;;;4.63;1.70;;;8.30;99.90;;;;;;5053979;28;20501;-70
2023/01/14 01:56:23;;;;;;;2.90;1.97;;;8.20;99.90;;;;;;5054016;28;20454;-69
2023/01/14 01:58:52;;;;;;;6.50;2.90;;;8.10;99.90;;;;;;5054153;28;20809;-70
2023/01/14 02:01:19;;;;;;;4.00;2.20;;;8.10;99.90;;;;;;5053892;28;20476;-69
2023/01/14 02:03:49;;;;;;;3.97;2.47;;;8.00;99.90;;;;;;5053366;28;20924;-69
2023/01/14 02:06:17;;;;;;;6.47;2.40;;;7.90;99.90;;;;;;5053702;28;20447;-69
2023/01/14 02:08:48;;;;;;;5.33;2.27;;;7.90;99.90;;;;;;5053812;28;20855;-70
2023/01/14 02:11:36;;;;;;;4.00;2.10;;;7.80;99.90;;;;;;5053471;28;20435;-70
2023/01/14 02:14:10;;;;;;;6.10;2.10;;;7.80;99.90;;;;;;5053299;28;20465;-70
2023/01/14 02:16:48;;;;;;;2.83;2.20;;;7.80;99.90;;;;;;5053720;28;20778;-70
2023/01/14 02:19:18;;;;;;;4.10;1.90;;;7.90;99.90;;;;;;5053867;28;20443;-69
2023/01/14 02:22:04;;;;;;;3.37;1.83;;;7.90;99.90;;;;;;5053542;28;20530;-69
2023/01/14 02:24:59;;;;;;;9.53;2.23;;;7.90;99.90;;;;;;5055024;28;20441;-70
2023/01/14 02:27:42;;;;;;;6.47;2.10;;;7.90;99.90;;;;;;5057309;28;20439;-70
2023/01/14 02:30:48;;;;;;;5.20;2.30;;;8.00;99.90;;;;;;5057133;28;20959;-70
2023/01/14 02:33:28;;;;;;;4.73;2.17;;;8.00;99.90;;;;;;5057559;28;20449;-69
2023/01/14 02:36:04;;;;;;;4.33;1.73;;;8.00;99.90;;;;;;5057184;28;20555;-70
2023/01/14 02:38:39;;;;;;;6.40;3.30;;;8.00;99.90;;;;;;5056828;28;20443;-70
2023/01/14 02:41:15;;;;;;;3.93;2.00;;;7.90;99.90;;;;;;5056956;28;20439;-69
2023/01/14 02:46:36;;;;;;;3.50;2.20;;;7.80;99.90;;;;;;5057146;28;20427;-70
2023/01/14 02:49:07;;;;;;;2.23;1.87;;;7.70;99.90;;;;;;5057085;28;20777;-70
2023/01/14 02:51:34;;;;;;;3.57;2.30;;;7.70;99.90;;;;;;5057071;28;20454;-70
2023/01/14 02:54:01;;;;;;;3.93;1.57;;;7.80;99.90;;;;;;5056744;28;20455;-70
2023/01/14 02:56:28;;;;;;;4.40;2.00;;;7.80;99.90;;;;;;5056795;28;20481;-69
2023/01/14 02:59:23;;;;;;;3.30;1.97;;;7.70;99.90;;;;;;5056954;28;20465;-69
2023/01/14 03:02:20;;;;;;;5.90;2.60;;;7.50;99.90;;;;;;5057273;28;20439;-70
2023/01/14 03:05:02;;;;;;;4.20;2.50;;;7.40;99.90;;;;;;5051747;28;20455;-70
2023/01/14 03:07:36;;;;;;;3.13;2.50;;;7.30;99.90;;;;;;5056819;28;20485;-70
2023/01/14 03:10:09;;;;;;;8.93;2.80;;;7.20;99.90;;;;;;5056385;28;20450;-70
2023/01/14 03:12:42;;;;;;;6.93;2.80;;;7.20;99.90;;;;;;5057379;28;20525;-70
2023/01/14 03:15:17;;;;;;;5.10;3.07;;;7.20;99.90;;;;;;5056344;28;20503;-70
2023/01/14 03:17:50;;;;;;;5.37;2.97;;;7.20;99.90;;;;;;5057498;28;20465;-71
2023/01/14 03:20:21;;;;;;;4.53;2.80;;;7.10;99.90;;;;;;5057467;28;20453;-70
2023/01/14 03:22:51;;;;;;;9.47;2.83;;;7.10;99.90;;;;;;5057006;28;20483;-69
2023/01/14 03:25:18;;;;;;;6.10;3.00;;;7.00;99.90;;;;;;5057487;28;20451;-70
2023/01/14 03:27:48;;;;;;;4.60;3.03;;;7.00;99.90;;;;;;5057891;28;20447;-70
2023/01/14 03:30:19;;;;;;;6.50;3.20;;;7.00;99.90;;;;;;5057664;28;20553;-71
2023/01/14 03:32:53;;;;;;;6.20;4.03;;;7.00;99.90;;;;;;5057326;28;20451;-70
2023/01/14 03:35:24;;;;;;;5.67;3.47;;;7.00;99.90;;;;;;5056370;28;20521;-75
2023/01/14 03:37:54;;;;;;;21.03;10.60;;;7.00;99.90;;;;;;5058080;28;20522;-67
2023/01/14 03:40:24;;;;;;;8.40;3.83;;;7.00;99.90;;;;;;5056044;28;20493;-68
2023/01/14 03:42:55;;;;;;;7.70;3.07;;;7.00;99.90;;;;;;5055918;28;20546;-69
2023/01/14 03:45:27;;;;;;;5.70;3.10;;;7.00;99.90;;;;;;5055808;28;20450;-68
2023/01/14 03:47:55;;;;;;;4.20;2.80;;;7.10;99.90;;;;;;5056052;28;20457;-69
2023/01/14 03:50:28;;;;;;;89.93;51.77;;;7.10;99.90;;;;;;5055845;28;20946;-70
2023/01/14 03:53:12;;;;;;;7.93;2.70;;;7.10;99.90;;;;;;5056058;28;20892;-69
2023/01/14 03:55:50;;;;;;;5.10;2.30;;;7.20;99.90;;;;;;5055954;28;20471;-68
2023/01/14 03:58:24;;;;;;;6.33;2.90;;;7.20;99.90;;;;;;5055996;28;20454;-68
2023/01/14 04:00:55;;;;;;;4.13;2.00;;;7.20;99.90;;;;;;5055897;28;20454;-70
2023/01/14 04:03:24;;;;;;;6.73;2.83;;;7.30;99.90;;;;;;5055758;28;20440;-71
2023/01/14 04:05:53;;;;;;;6.07;1.90;;;7.30;99.90;;;;;;5055546;28;20813;-69
2023/01/14 04:08:21;;;;;;;5.63;2.17;;;7.40;99.90;;;;;;5055612;28;20465;-69
2023/01/14 04:10:48;;;;;;;5.53;2.07;;;7.40;99.90;;;;;;5055230;28;20461;-69
2023/01/14 04:16:01;;;;;;;5.30;1.80;;;7.50;99.90;;;;;;5055811;28;20558;-67
2023/01/14 04:18:29;;;;;;;6.07;2.07;;;7.50;99.90;;;;;;5055719;28;20542;-67
2023/01/14 04:20:56;;;;;;;4.60;2.20;;;7.60;99.90;;;;;;5055330;28;20469;-67
2023/01/14 04:23:23;;;;;;;9.60;4.20;;;7.60;99.90;;;;;;5055449;28;20546;-67
2023/01/14 04:25:56;;;;;;;6.97;2.23;;;7.60;99.90;;;;;;5055669;28;20542;-68
2023/01/14 04:28:23;;;;;;;5.03;2.20;;;7.60;99.90;;;;;;5055655;28;20432;-67
2023/01/14 04:30:50;;;;;;;5.50;2.20;;;7.60;99.90;;;;;;5054946;28;20459;-67
2023/01/14 04:33:17;;;;;;;5.57;2.00;;;7.60;99.90;;;;;;5055262;28;20465;-68
2023/01/14 04:35:48;;;;;;;4.97;1.90;;;7.60;99.90;;;;;;5055355;28;20487;-68
2023/01/14 04:38:15;;;;;;;5.97;1.80;;;7.60;99.90;;;;;;5055052;28;20443;-67
2023/01/14 04:40:42;;;;;;;5.00;2.13;;;7.60;99.90;;;;;;5055070;28;20554;-67
2023/01/14 04:43:08;;;;;;;6.30;1.90;;;7.70;99.90;;;;;;5054860;28;20534;-68
2023/01/14 04:45:35;;;;;;;5.40;1.70;;;7.70;99.90;;;;;;5055170;28;20490;-67
2023/01/14 04:48:02;;;;;;;4.93;1.80;;;7.70;99.90;;;;;;5054099;28;20459;-68
2023/01/14 04:50:33;;;;;;;5.30;2.10;;;7.80;99.90;;;;;;5055237;28;20861;-68
2023/01/14 04:53:10;;;;;;;4.37;1.77;;;7.80;99.90;;;;;;5055220;28;20501;-67
2023/01/14 04:55:38;;;;;;;4.93;2.50;;;7.80;99.90;;;;;;5055130;28;20482;-68
2023/01/14 04:58:07;;;;;;;5.37;1.97;;;7.80;99.90;;;;;;5054723;28;20468;-68
2023/01/14 05:00:34;;;;;;;3.30;2.00;;;7.80;99.90;;;;;;5055335;28;20540;-68
2023/01/14 05:03:03;;;;;;;5.20;2.40;;;7.80;99.90;;;;;;5054798;28;20485;-68
2023/01/14 05:05:29;;;;;;;4.60;2.50;;;7.80;99.90;;;;;;5054701;28;20470;-68
2023/01/14 05:07:56;;;;;;;4.83;1.87;;;7.80;99.90;;;;;;5054353;28;21005;-68
2023/01/14 05:10:24;;;;;;;2.37;1.93;;;7.80;99.90;;;;;;5054640;28;20455;-67
2023/01/14 05:12:57;;;;;;;7.47;2.10;;;7.80;99.90;;;;;;5054114;28;20455;-68
2023/01/14 05:15:26;;;;;;;5.77;1.80;;;7.90;99.90;;;;;;5054068;28;20467;-68
2023/01/14 05:17:53;;;;;;;7.73;2.87;;;7.90;99.90;;;;;;5054157;28;20880;-67
2023/01/14 05:20:20;;;;;;;2.33;1.57;;;7.90;99.90;;;;;;5054415;28;20942;-67
2023/01/14 05:22:47;;;;;;;5.03;2.70;;;8.00;99.90;;;;;;5054163;28;20575;-68
2023/01/14 05:25:14;;;;;;;4.53;2.37;;;8.00;99.90;;;;;;5055148;28;20457;-67
2023/01/14 05:27:42;;;;;;;3.77;1.83;;;8.00;99.90;;;;;;5054932;28;20455;-67
2023/01/14 05:30:10;;;;;;;2.93;1.93;;;8.00;99.90;;;;;;5054987;28;20868;-70
2023/01/14 05:32:37;;;;;;;4.33;1.80;;;8.00;99.90;;;;;;5054705;28;20546;-68
2023/01/14 05:35:05;;;;;;;3.77;1.70;;;8.10;99.90;;;;;;5054993;28;20803;-68
2023/01/14 05:37:33;;;;;;;4.13;2.03;;;8.10;99.90;;;;;;5054739;28;20487;-68
2023/01/14 05:40:00;;;;;;;5.70;1.70;;;8.10;99.90;;;;;;5054119;28;20455;-67
2023/01/14 05:47:57;;;;;;;8.07;2.13;;;8.10;99.90;;;;;;5054128;28;20522;-67
2023/01/14 05:50:24;;;;;;;9.20;2.07;;;8.10;99.90;;;;;;5054292;28;20505;-68
2023/01/14 05:52:51;;;;;;;4.40;2.00;;;8.10;99.90;;;;;;5054428;28;20948;-68
2023/01/14 05:55:18;;;;;;;4.13;1.70;;;8.10;99.90;;;;;;5054418;28;20505;-67
2023/01/14 05:57:44;;;;;;;4.67;2.07;;;8.10;99.90;;;;;;5054989;28;20455;-68
2023/01/14 06:06:20;;;;;;;2.27;1.67;;;8.10;99.90;;;;;;5058516;28;20455;-68
2023/01/14 06:08:30;;;;;;;6.13;1.70;;;8.10;99.90;;;;;;5058206;28;20879;-69
2023/01/14 06:10:58;;;;;;;4.50;1.53;;;8.20;99.90;;;;;;5058249;28;20465;-68
2023/01/14 06:13:25;;;;;;;5.97;1.80;;;8.20;99.90;;;;;;5057614;28;20498;-66
2023/01/14 06:15:55;;;;;;;5.00;1.77;;;8.20;99.90;;;;;;5057935;28;20826;-66
2023/01/14 06:18:23;;;;;;;5.27;2.00;;;8.20;99.90;;;;;;5058062;28;20454;-68
2023/01/14 06:20:51;;;;;;;4.53;1.87;;;8.20;99.90;;;;;;5057760;28;20455;-66
2023/01/14 06:23:19;;;;;;;3.63;2.10;;;8.20;99.90;;;;;;5057376;28;20600;-68
2023/01/14 06:25:47;;;;;;;5.70;2.20;;;8.20;99.90;;;;;;5057429;28;20951;-69
2023/01/14 06:28:15;;;;;;;3.87;1.90;;;8.20;99.90;;;;;;5057620;28;20542;-68
2023/01/14 06:30:42;;;;;;;2.90;1.70;;;8.20;99.90;;;;;;5057613;28;20463;-69
2023/01/14 06:33:11;;;;;;;7.30;1.50;;;8.20;99.90;;;;;;5057605;28;20935;-66
2023/01/14 06:35:42;;;;;;;4.80;1.73;;;8.20;99.90;;;;;;5058322;28;20505;-68
2023/01/14 06:38:09;;;;;;;5.33;1.83;;;8.20;99.90;;;;;;5057080;28;20458;-67
2023/01/14 06:40:37;;;;;;;4.77;1.60;;;8.20;99.90;;;;;;5057407;28;20497;-67
2023/01/14 06:43:04;;;;;;;4.60;1.70;;;8.20;99.90;;;;;;5057363;28;20927;-68
2023/01/14 06:45:31;;;;;;;4.60;1.70;;;8.20;99.90;;;;;;5057214;28;20461;-68
2023/01/14 06:47:58;;;;;;;2.83;1.80;;;8.20;99.90;;;;;;5057302;28;20545;-68
2023/01/14 06:50:27;;;;;;;4.97;1.83;;;8.10;99.90;;;;;;5057132;28;20816;-69
2023/01/14 06:52:54;;;;;;;7.00;2.57;;;8.10;99.90;;;;;;5057498;28;20465;-68
2023/01/14 06:55:21;;;;;;;11.90;2.23;;;8.10;99.90;;;;;;5056805;28;20518;-69
2023/01/14 06:57:48;;;;;;;2.77;1.60;;;8.10;99.90;;;;;;5056883;28;20931;-68
2023/01/14 07:00:16;;;;;;;3.00;1.67;;;8.00;99.90;;;;;;5056691;28;20455;-68
2023/01/14 07:02:43;;;;;;;4.37;1.70;;;8.00;99.90;;;;;;5056920;28;20465;-68
2023/01/14 07:05:10;;;;;;;3.77;1.57;;;8.00;99.90;;;;;;5056861;28;20576;-68
2023/01/14 07:07:38;;;;;;;7.13;1.87;;;8.00;99.90;;;;;;5056936;28;20916;-71
2023/01/14 07:10:05;;;;;;;6.70;1.80;;;8.00;99.90;;;;;;5056195;28;20498;-71
2023/01/14 07:12:32;;;;;;;3.77;1.50;;;7.90;99.90;;;;;;5057297;28;20549;-71
2023/01/14 07:14:59;;;;;;;3.93;1.93;;;8.00;99.90;;;;;;5057440;28;20565;-70
2023/01/14 07:17:26;;;;;;;5.00;2.40;;;8.00;99.90;;;;;;5056976;28;20493;-71
2023/01/14 07:19:53;;;;;;;3.10;2.00;;;8.00;99.90;;;;;;5056439;28;20466;-70
2023/01/14 07:22:20;;;;;;;5.80;1.80;;;7.90;99.90;;;;;;5056603;28;20861;-70
2023/01/14 07:24:48;;;;;;;4.93;1.80;;;7.90;99.90;;;;;;5056729;28;20516;-71
2023/01/14 07:27:15;;;;;;;2.63;1.60;;;7.90;99.90;;;;;;5056850;28;20462;-70
2023/01/14 07:29:42;;;;;;;3.20;1.50;;;7.80;99.90;;;;;;5057134;28;20466;-70
2023/01/14 07:32:09;;;;;;;6.00;2.03;;;7.70;99.90;;;;;;5057401;28;20497;-70
2023/01/14 07:34:36;;;;;;;2.73;1.80;;;7.60;99.90;;;;;;5057267;28;20465;-70
2023/01/14 07:37:03;;;;;;;5.23;2.10;;;7.60;99.90;;;;;;5056864;28;20479;-69
2023/01/14 07:39:30;;;;;;;7.13;2.60;;;7.60;99.90;;;;;;5056343;28;20521;-70
2023/01/14 07:41:58;;;;;;;4.43;1.80;;;7.60;99.90;;;;;;5056256;28;20455;-70
2023/01/14 07:44:25;;;;;;;2.57;1.53;;;7.50;99.90;;;;;;5056328;28;20455;-70
2023/01/14 07:46:53;;;;;;;6.17;1.70;;;7.50;99.90;;;;;;5056816;28;20477;-71
2023/01/14 07:49:20;;;;;;;3.67;1.90;;;7.40;99.90;;;;;;5056278;28;20516;-70
2023/01/14 07:51:47;;;;;;;4.37;1.50;;;7.40;99.90;;;;;;5056165;28;20455;-70
2023/01/14 07:54:14;;;;;;;7.63;2.20;;;7.30;99.90;;;;;;5056486;28;20459;-70
2023/01/14 07:56:41;;;;;;;4.70;2.43;;;7.30;99.90;;;;;;5055699;28;20493;-70
2023/01/14 07:59:10;;;;;;;3.83;2.10;;;7.30;99.90;;;;;;5055979;28;20554;-70
2023/01/14 08:01:37;;;;;;;4.80;2.07;;;7.30;99.90;;;;;;5055555;28;20455;-69
2023/01/14 08:04:05;;;;;;;4.67;2.00;;;7.30;99.90;;;;;;5055968;28;20487;-69
2023/01/14 08:06:33;;;;;;;5.70;2.13;;;7.30;99.90;;;;;;5055901;28;20461;-69
2023/01/14 08:09:01;;;;;;;5.67;2.20;;;7.40;99.90;;;;;;5056174;28;20455;-69
2023/01/14 08:11:28;;;;;;;3.67;2.30;;;7.40;99.90;;;;;;5055837;28;20462;-70
2023/01/14 08:13:55;;;;;;;4.67;2.20;;;7.40;99.90;;;;;;5055767;28;20458;-70
2023/01/14 08:16:23;;;;;;;3.97;1.80;;;7.40;99.90;;;;;;5055624;28;21021;-70
2023/01/14 08:18:50;;;;;;;3.87;1.97;;;7.40;99.90;;;;;;5055623;28;20850;-70
2023/01/14 08:21:17;;;;;;;4.00;2.00;;;7.40;99.90;;;;;;5055321;28;21002;-71
2023/01/14 08:23:44;;;;;;;4.47;2.10;;;7.40;99.90;;;;;;5054921;28;20483;-71
2023/01/14 08:26:13;;;;;;;6.80;2.17;;;7.40;99.90;;;;;;5055847;28;20555;-70
2023/01/14 08:28:41;;;;;;;3.43;2.00;;;7.40;99.90;;;;;;5055602;28;20455;-70
2023/01/14 08:31:10;;;;;;;4.37;1.93;;;7.40;99.90;;;;;;5055005;28;20941;-71
2023/01/14 08:33:40;;;;;;;3.93;1.60;;;7.50;99.90;;;;;;5055373;28;20513;-72
2023/01/14 08:36:09;;;;;;;9.37;2.47;;;7.50;99.90;;;;;;5054867;28;20482;-71
2023/01/14 08:38:37;;;;;;;5.27;2.10;;;7.50;99.90;;;;;;5054992;28;20541;-69
2023/01/14 08:41:04;;;;;;;5.60;1.70;;;7.60;99.90;;;;;;5055353;28;20455;-70
2023/01/14 08:43:31;;;;;;;6.40;2.43;;;7.60;99.90;;;;;;5055507;28;20459;-70
2023/01/14 08:45:58;;;;;;;6.47;2.20;;;7.60;99.90;;;;;;5054834;28;20455;-72
2023/01/14 08:48:25;;;;;;;5.40;1.70;;;7.60;99.90;;;;;;5054875;28;20546;-70
2023/01/14 08:50:53;;;;;;;4.10;1.90;;;7.60;99.90;;;;;;5054834;28;20554;-69
2023/01/14 08:53:20;;;;;;;4.83;1.90;;;7.70;99.90;;;;;;5054909;28;20459;-70
2023/01/14 08:55:47;;;;;;;8.87;2.83;;;7.70;99.90;;;;;;5054766;28;20877;-70
2023/01/14 08:58:14;;;;;;;3.70;2.10;;;7.80;99.90;;;;;;5054959;28;20481;-71
2023/01/14 09:00:41;;;;;;;3.73;1.70;;;7.90;99.90;;;;;;5054673;28;20554;-71
2023/01/14 09:03:08;;;;;;;8.63;1.87;;;7.90;99.90;;;;;;5055020;28;20459;-71
2023/01/14 09:05:35;;;;;;;5.00;1.97;;;7.90;99.90;;;;;;5054935;28;20451;-70
2023/01/14 09:19:04;;;;;;;6.40;2.40;;;8.20;99.90;;;;;;5074363;28;20422;-72
2023/01/14 09:21:31;;;;;;;6.47;1.90;;;8.30;99.90;;;;;;5054834;28;20451;-71
2023/01/14 09:23:59;;;;;;;6.40;1.80;;;8.40;99.90;;;;;;5054938;28;20474;-72
2023/01/14 09:26:26;;;;;;;3.37;1.60;;;8.40;99.90;;;;;;5054681;28;20458;-71
2023/01/14 09:28:53;;;;;;;4.07;1.93;;;8.50;99.90;;;;;;5054680;28;20459;-71
2023/01/14 09:31:20;;;;;;;5.67;2.33;;;8.60;99.90;;;;;;5055939;28;20565;-72
2023/01/14 09:33:47;;;;;;;2.47;1.63;;;8.60;99.90;;;;;;5054363;28;20455;-71
2023/01/14 09:36:13;;;;;;;7.63;1.60;;;8.70;99.90;;;;;;5054461;28;20483;-70
2023/01/14 09:38:40;;;;;;;5.00;1.80;;;8.70;99.90;;;;;;5054668;28;20803;-71
2023/01/14 09:41:27;;;;;;;2.23;1.70;;;8.70;99.90;;;;;;5053857;28;20550;-70
2023/01/14 09:43:54;;;;;;;4.43;1.97;;;8.80;99.90;;;;;;5054282;28;20442;-71
2023/01/14 09:46:23;;;;;;;4.33;1.73;;;8.80;99.90;;;;;;5054391;28;21015;-71
2023/01/14 09:48:50;;;;;;;5.90;1.70;;;8.80;99.90;;;;;;5055041;28;20463;-72
2023/01/14 09:51:32;;;;;;;3.63;1.40;;;8.90;99.90;;;;;;5055182;28;20942;-70
2023/01/14 09:54:08;;;;;;;9.93;2.17;;;8.90;99.90;;;;;;5054985;28;20937;-72
2023/01/14 09:56:40;;;;;;;5.00;1.57;;;9.00;99.90;;;;;;5054778;28;20549;-71
2023/01/14 09:59:16;;;;;;;6.43;2.00;;;9.10;99.90;;;;;;5054582;28;20811;-71
2023/01/14 10:01:50;;;;;;;4.67;1.77;;;9.10;99.90;;;;;;5054386;28;20442;-71
2023/01/14 10:04:49;;;;;;;5.83;1.83;;;9.20;99.90;;;;;;5055024;28;20543;-70
2023/01/14 10:07:18;;;;;;;6.50;1.80;;;9.20;99.90;;;;;;5048768;28;20466;-70
2023/01/14 10:09:49;;;;;;;3.50;1.80;;;9.30;99.90;;;;;;5053685;28;20461;-71
2023/01/14 10:12:23;;;;;;;6.70;1.80;;;9.30;99.90;;;;;;5053487;28;20443;-70
2023/01/14 10:14:58;;;;;;;5.00;3.00;;;9.30;99.90;;;;;;5053695;28;20450;-71
2023/01/14 10:17:31;;;;;;;5.03;2.03;;;9.30;99.90;;;;;;5053863;28;20541;-70
2023/01/14 10:20:04;;;;;;;3.83;1.70;;;9.20;99.90;;;;;;5053959;28;20461;-71
2023/01/14 10:22:37;;;;;;;7.33;1.90;;;9.20;99.90;;;;;;5053358;28;20487;-70
2023/01/14 10:25:14;;;;;;;9.37;3.20;;;9.20;99.90;;;;;;5054317;28;20530;-70
2023/01/14 10:27:44;;;;;;;8.27;1.87;;;9.20;99.90;;;;;;5054030;28;20439;-71
2023/01/14 10:30:18;;;;;;;7.40;1.80;;;9.20;99.90;;;;;;5053616;28;20924;-70
2023/01/14 10:32:46;;;;;;;9.93;2.37;;;9.20;99.90;;;;;;5053889;28;20443;-70
2023/01/14 10:35:15;;;;;;;4.07;1.60;;;9.20;99.90;;;;;;5053573;28;20888;-70
2023/01/14 10:37:42;;;;;;;8.13;1.77;;;9.20;99.90;;;;;;5053956;28;20562;-71
2023/01/14 10:40:18;;;;;;;8.50;3.00;;;9.20;99.90;;;;;;5053583;28;20465;-71
2023/01/14 10:42:46;;;;;;;7.43;2.33;;;9.20;99.90;;;;;;5054002;28;20457;-71
2023/01/14 10:45:13;;;;;;;5.80;2.10;;;9.20;99.90;;;;;;5054981;28;20454;-71
2023/01/14 10:47:41;;;;;;;7.30;1.80;;;9.30;99.90;;;;;;5057153;28;20462;-71
2023/01/14 10:50:18;;;;;;;5.53;1.90;;;9.30;99.90;;;;;;5057061;28;20538;-71
2023/01/14 10:52:45;;;;;;;7.27;2.13;;;9.40;99.90;;;;;;5057406;28;20454;-72
2023/01/14 10:55:15;;;;;;;11.20;2.63;;;9.40;99.90;;;;;;5057652;28;20455;-72
2023/01/14 10:57:49;;;;;;;5.87;1.90;;;9.40;99.90;;;;;;5057444;28;20477;-70
2023/01/14 11:00:35;;;;;;;8.67;2.10;;;9.40;99.90;;;;;;5058221;28;20443;-72
2023/01/14 11:03:04;;;;;;;5.97;2.33;;;9.40;99.90;;;;;;5057861;28;20454;-70
2023/01/14 11:05:34;;;;;;;11.80;2.40;;;9.40;99.90;;;;;;5057104;28;20455;-71
2023/01/14 11:08:15;;;;;;;8.10;2.50;;;9.40;99.90;;;;;;5056528;28;20916;-71
2023/01/14 11:10:43;;;;;;;7.50;1.93;;;9.40;99.90;;;;;;5056578;28;20447;-71
2023/01/14 11:13:26;;;;;;;8.90;1.73;;;9.40;99.90;;;;;;5056900;28;20465;-71
2023/01/14 11:15:53;;;;;;;8.87;2.40;;;9.40;99.90;;;;;;5056957;28;20470;-73
2023/01/14 11:18:25;;;;;;;5.73;2.00;;;9.40;99.90;;;;;;5056626;28;20546;-69
2023/01/14 11:21:07;;;;;;;8.27;2.33;;;9.40;99.90;;;;;;5056781;28;20505;-73
2023/01/14 11:23:36;;;;;;;7.83;1.70;;;9.40;99.90;;;;;;5056308;28;20983;-71
2023/01/14 11:26:07;;;;;;;6.37;2.03;;;9.40;99.90;;;;;;5056766;28;20554;-70
2023/01/14 11:28:39;;;;;;;10.60;2.53;;;9.30;99.90;;;;;;5056201;28;20475;-66
2023/01/14 11:31:06;;;;;;;6.27;2.07;;;9.30;99.90;;;;;;5056715;28;20534;-66
2023/01/14 11:33:34;;;;;;;10.73;2.17;;;9.40;99.90;;;;;;5056584;28;20539;-67
2023/01/14 11:36:08;;;;;;;3.73;1.77;;;9.40;99.90;;;;;;5056050;28;20916;-68
2023/01/14 11:38:44;;;;;;;7.47;1.87;;;9.40;99.90;;;;;;5056121;28;20463;-68
2023/01/14 11:41:33;;;;;;;7.13;2.23;;;9.30;99.90;;;;;;5056359;28;20896;-68
2023/01/14 11:44:03;;;;;;;10.17;2.33;;;9.30;99.90;;;;;;5056603;28;20447;-67
2023/01/14 11:46:33;;;;;;;9.77;2.83;;;9.30;99.90;;;;;;5056594;28;20459;-67
2023/01/14 11:49:16;;;;;;;10.33;2.70;;;9.30;99.90;;;;;;5057181;28;20450;-68
2023/01/14 11:51:56;;;;;;;6.80;2.13;;;9.30;99.90;;;;;;5056558;28;20972;-66
2023/01/14 11:54:24;;;;;;;9.70;2.70;;;9.30;99.90;;;;;;5057175;28;20443;-67
2023/01/14 11:56:51;;;;;;;7.37;2.03;;;9.40;99.90;;;;;;5055971;28;20479;-68
2023/01/14 11:59:25;;;;;;;9.93;2.23;;;9.40;99.90;;;;;;5056303;28;20950;-71
2023/01/14 12:01:57;;;;;;;8.33;1.87;;;9.40;99.90;;;;;;5058093;28;20479;-72
2023/01/14 12:04:28;;;;;;;5.37;2.00;;;9.30;99.90;;;;;;5057799;28;20522;-71
2023/01/14 12:07:00;;;;;;;5.83;1.70;;;9.20;99.90;;;;;;5058137;28;20827;-71
2023/01/14 12:09:35;;;;;;;7.67;3.13;;;9.10;99.90;;;;;;5057600;28;20526;-70
2023/01/14 12:12:06;;;;;;;4.40;1.50;;;9.10;99.90;;;;;;5056474;28;20538;-70
2023/01/14 12:17:31;;;;;;;8.47;2.40;;;9.10;99.90;;;;;;5056165;28;20946;-70
2023/01/14 12:20:02;;;;;;;7.83;2.33;;;9.10;99.90;;;;;;5056968;28;20444;-71
2023/01/14 12:22:34;;;;;;;9.70;2.47;;;9.10;99.90;;;;;;5057567;28;20789;-71
2023/01/14 12:25:09;;;;;;;5.83;1.93;;;9.10;99.90;;;;;;5058520;28;20550;-71
2023/01/14 12:27:44;;;;;;;6.57;2.00;;;9.00;99.90;;;;;;5058640;28;20534;-70
2023/01/14 12:30:31;;;;;;;4.83;1.50;;;9.00;99.90;;;;;;5058318;28;20838;-70
2023/01/14 12:33:03;;;;;;;10.40;2.37;;;9.00;99.90;;;;;;5058678;28;20928;-70
2023/01/14 12:35:37;;;;;;;7.47;2.40;;;8.90;99.90;;;;;;5059124;28;20907;-71
2023/01/14 12:45:41;;;;;;;9.10;2.00;;;8.90;99.90;;;;;;5058550;28;20558;-70
2023/01/14 12:46:32;;;;;;;11.27;2.40;;;9.00;99.90;;;;;;5058992;28;20883;-71
2023/01/14 12:49:00;;;;;;;4.33;1.43;;;8.90;99.90;;;;;;5065057;28;20572;-69
2023/01/14 12:51:32;;;;;;;5.43;2.20;;;8.90;99.90;;;;;;5061834;28;20478;-69
2023/01/14 12:54:02;;;;;;;5.13;2.70;;;8.90;99.90;;;;;;5058143;28;20471;-70
2023/01/14 12:56:32;;;;;;;6.30;2.87;;;8.90;99.90;;;;;;5059803;28;20506;-70
2023/01/14 12:59:02;;;;;;;5.43;2.37;;;9.00;99.90;;;;;;5077627;28;20474;-70
2023/01/14 13:01:35;;;;;;;8.40;2.00;;;9.00;99.90;;;;;;5077620;28;20459;-70
2023/01/14 13:04:05;;;;;;;5.40;2.17;;;8.90;99.90;;;;;;5077869;28;20438;-69
2023/01/14 13:06:35;;;;;;;8.33;1.90;;;8.90;99.90;;;;;;5075718;28;20485;-70
2023/01/14 13:09:04;;;;;;;9.07;2.73;;;8.90;99.90;;;;;;5076902;28;20460;-70
2023/01/14 13:11:43;;;;;;;5.30;1.70;;;8.80;99.90;;;;;;5077617;28;20863;-71
2023/01/14 13:14:21;;;;;;;7.77;2.30;;;8.80;99.90;;;;;;5077396;28;20913;-70
2023/01/14 13:16:50;;;;;;;7.30;2.20;;;8.80;99.90;;;;;;5066235;28;20784;-70
2023/01/14 13:19:36;;;;;;;8.97;2.83;;;8.90;99.90;;;;;;5056333;28;20602;-71
2023/01/14 13:22:04;;;;;;;6.97;2.30;;;8.90;99.90;;;;;;5055303;28;20493;-69
2023/01/14 13:24:36;;;;;;;9.83;2.97;;;8.90;99.90;;;;;;5054895;28;20459;-68
2023/01/14 13:27:21;;;;;;;9.17;3.03;;;8.90;99.90;;;;;;5055223;28;20914;-71
2023/01/14 13:29:47;;;;;;;8.33;2.77;;;9.00;99.90;;;;;;5055442;28;20518;-70
2023/01/14 13:32:47;;;;;;;5.93;2.30;;;9.00;99.90;;;;;;5056221;28;20532;-71
2023/01/14 13:35:37;;;;;;;7.60;2.50;;;9.00;99.90;;;;;;5057633;28;20467;-73
2023/01/14 13:38:14;;;;;;;7.70;2.17;;;8.90;99.90;;;;;;5053157;28;20562;-71
2023/01/14 13:40:51;;;;;;;9.43;2.30;;;8.80;99.90;;;;;;5058891;28;20473;-71
2023/01/14 13:43:24;;;;;;;9.17;2.27;;;8.80;99.90;;;;;;5056881;28;20478;-70
2023/01/14 13:45:55;;;;;;;4.10;1.93;;;8.80;99.90;;;;;;5057615;28;20542;-71
2023/01/14 13:48:25;;;;;;;6.63;2.10;;;8.70;99.90;;;;;;5059389;28;20546;-70
2023/01/14 13:50:54;;;;;;;8.60;1.83;;;8.70;99.90;;;;;;5062876;28;20515;-70